Urbandale, Missouri
Current Conditions -  °F | °C
As of 10:15 PM on Thursday 27 Nov 2014 (Local Time) from KVER Reporting Station
Clear Clear  
Wind Chill: 26°   Ceiling: Unl
Heat Index: 31°   Visibility: 10mi
Dew Point: 25°   Wind: 5mph
Humidity: 77%   Direction: 120°ESE
Pressure: 30.36"   Gusts: NA
Location:  39.4377°N, 92.3968°W
Report Text: KVER 280415Z AUTO 12004KT 10SM CLR 00/M04 A3036 RMK AO2 T10051041
Loading
Personal Weather Stations






























Interactive Weather Map New forecast layout! Learn more

10-Day Weather Forecast

Advertisements
Track Severe Weather on mobile